createdAt,value
2024-05-09T00:00:40.825Z,8.30
2024-05-09T00:03:10.033Z,8.35
2024-05-09T00:05:38.998Z,7.45
2024-05-09T00:08:06.717Z,8.02
2024-05-09T00:10:37.360Z,8.25
2024-05-09T00:13:07.061Z,8.50
2024-05-09T00:15:35.312Z,9.20
2024-05-09T00:18:03.647Z,9.18
2024-05-09T00:20:38.584Z,8.85
2024-05-09T00:23:09.001Z,8.73
2024-05-09T00:25:36.964Z,8.90
2024-05-09T00:28:04.011Z,8.93
2024-05-09T00:30:34.711Z,9.25
2024-05-09T00:33:08.363Z,9.02
2024-05-09T00:35:36.814Z,8.65
2024-05-09T00:38:04.586Z,9.15
2024-05-09T00:40:43.226Z,8.23
2024-05-09T00:43:12.273Z,9.32
2024-05-09T00:45:40.235Z,8.82
2024-05-09T00:48:09.515Z,8.48
2024-05-09T00:50:42.007Z,9.07
2024-05-09T00:53:14.216Z,9.05
2024-05-09T00:55:42.181Z,8.48
2024-05-09T00:58:12.333Z,8.77
2024-05-09T01:00:41.539Z,8.90
2024-05-09T01:03:11.796Z,8.55
2024-05-09T01:05:41.044Z,8.82
2024-05-09T01:08:10.097Z,8.48
2024-05-09T01:10:38.107Z,9.38
2024-05-09T01:13:05.802Z,8.82
2024-05-09T01:15:34.339Z,9.98
2024-05-09T01:18:04.271Z,9.05
2024-05-09T01:20:39.882Z,9.18
2024-05-09T01:23:10.370Z,9.32
2024-05-09T01:25:37.756Z,9.38
2024-05-09T01:28:05.064Z,10.18
2024-05-09T01:30:35.406Z,10.18
2024-05-09T01:33:09.619Z,9.85
2024-05-09T01:35:39.259Z,9.43
2024-05-09T01:38:07.383Z,9.77
2024-05-09T01:40:38.564Z,10.02
2024-05-09T01:43:11.456Z,9.82
2024-05-09T01:45:40.052Z,10.10
2024-05-09T01:48:08.573Z,9.13
2024-05-09T01:50:39.982Z,10.10
2024-05-09T01:53:11.228Z,10.55
2024-05-09T01:55:38.822Z,9.50
2024-05-09T01:58:05.706Z,9.40
2024-05-09T02:00:39.263Z,10.68
2024-05-09T02:03:12.323Z,10.75
2024-05-09T02:05:42.835Z,10.57
2024-05-09T02:08:17.603Z,9.85
2024-05-09T02:10:45.884Z,9.68
2024-05-09T02:13:16.639Z,9.38
2024-05-09T02:15:43.938Z,9.45
2024-05-09T02:18:11.730Z,9.23
2024-05-09T02:20:40.801Z,9.85
2024-05-09T02:23:09.306Z,9.98
2024-05-09T02:25:36.390Z,9.60
2024-05-09T02:28:03.379Z,10.02
2024-05-09T02:30:38.752Z,10.13
2024-05-09T02:33:10.529Z,9.02
2024-05-09T02:35:39.638Z,9.70
2024-05-09T02:38:06.773Z,9.60
2024-05-09T02:40:37.659Z,9.05
2024-05-09T02:43:07.532Z,9.75
2024-05-09T02:45:34.669Z,8.82
2024-05-09T02:48:02.237Z,9.57
2024-05-09T02:50:36.733Z,8.80
2024-05-09T02:53:11.200Z,9.55
2024-05-09T02:55:38.724Z,8.93
2024-05-09T02:58:09.142Z,9.32
2024-05-09T03:00:40.297Z,9.07
2024-05-09T03:03:11.646Z,8.70
2024-05-09T03:05:41.806Z,9.05
2024-05-09T03:08:09.431Z,9.00
2024-05-09T03:10:38.574Z,8.85
2024-05-09T03:13:11.506Z,9.50
2024-05-09T03:15:38.646Z,9.13
2024-05-09T03:18:06.751Z,9.32
2024-05-09T03:20:35.844Z,9.60
2024-05-09T03:23:05.386Z,9.20
2024-05-09T03:25:33.220Z,9.35
2024-05-09T03:28:00.182Z,9.48
2024-05-09T03:30:38.968Z,9.55
2024-05-09T03:33:19.956Z,10.43
2024-05-09T03:35:48.967Z,10.13
2024-05-09T03:38:16.569Z,9.90
2024-05-09T03:40:50.607Z,9.73
2024-05-09T03:43:19.115Z,9.80
2024-05-09T03:45:48.894Z,9.13
2024-05-09T03:48:16.200Z,10.25
2024-05-09T03:50:43.255Z,10.30
2024-05-09T03:53:11.690Z,10.18
2024-05-09T03:55:39.248Z,9.50
2024-05-09T03:58:08.148Z,9.73
2024-05-09T04:00:38.807Z,9.77
2024-05-09T04:03:10.156Z,10.25
2024-05-09T04:05:40.977Z,9.52
2024-05-09T04:08:09.550Z,9.57
2024-05-09T04:10:36.672Z,8.73
2024-05-09T04:13:04.319Z,9.45
2024-05-09T04:15:31.863Z,9.20
2024-05-09T04:17:59.332Z,9.23
2024-05-09T04:22:56.293Z,9.40
2024-05-09T04:25:23.117Z,9.13
2024-05-09T04:27:49.932Z,9.85
2024-05-09T04:30:25.513Z,9.85
2024-05-09T04:32:57.924Z,9.75
2024-05-09T04:35:24.984Z,9.43
2024-05-09T04:37:51.907Z,9.18
2024-05-09T04:40:27.806Z,9.93
2024-05-09T04:42:59.724Z,10.68
2024-05-09T04:45:26.658Z,10.05
2024-05-09T04:47:54.841Z,9.38
2024-05-09T04:50:30.013Z,8.85
2024-05-09T04:53:03.260Z,8.57
2024-05-09T04:55:30.509Z,8.65
2024-05-09T04:57:57.660Z,8.98
2024-05-09T05:00:32.602Z,8.90
2024-05-09T05:03:15.500Z,8.35
2024-05-09T05:05:45.212Z,8.65
2024-05-09T05:08:17.496Z,8.70
2024-05-09T05:10:46.657Z,8.27
2024-05-09T05:13:20.918Z,8.43
2024-05-09T05:15:56.071Z,8.00
2024-05-09T05:18:24.374Z,7.75
2024-05-09T05:20:51.698Z,8.38
2024-05-09T05:23:20.443Z,8.18
2024-05-09T05:25:48.997Z,8.60
2024-05-09T05:28:17.213Z,8.32
2024-05-09T05:30:44.835Z,8.18
2024-05-09T05:33:14.271Z,8.10
2024-05-09T05:35:42.299Z,8.68
2024-05-09T05:38:10.263Z,8.43
2024-05-09T05:40:38.942Z,8.98
2024-05-09T05:43:11.251Z,8.27
2024-05-09T05:45:39.267Z,7.93
2024-05-09T05:48:07.683Z,8.57
2024-05-09T05:50:37.524Z,8.05
2024-05-09T05:53:07.642Z,8.50
2024-05-09T05:55:36.234Z,8.13
2024-05-09T05:58:03.448Z,8.77
2024-05-09T06:00:38.068Z,8.15
2024-05-09T06:03:08.711Z,8.25
2024-05-09T06:05:37.332Z,7.68
2024-05-09T06:08:04.935Z,7.88
2024-05-09T06:10:38.112Z,7.38
2024-05-09T06:13:07.856Z,9.07
2024-05-09T06:15:35.002Z,9.77
2024-05-09T06:18:02.350Z,10.98
2024-05-09T06:20:35.905Z,10.80
2024-05-09T06:23:06.788Z,10.18
2024-05-09T06:25:34.794Z,10.18
2024-05-09T06:28:02.572Z,9.25
2024-05-09T06:30:37.224Z,9.40
2024-05-09T06:33:09.011Z,10.30
2024-05-09T06:35:37.278Z,9.45
2024-05-09T06:38:05.048Z,9.75
2024-05-09T06:40:38.048Z,10.65
2024-05-09T06:43:18.512Z,10.07
2024-05-09T06:45:53.105Z,10.00
2024-05-09T06:48:22.102Z,9.95
2024-05-09T06:50:50.588Z,9.57
2024-05-09T06:53:22.047Z,9.80
2024-05-09T06:55:49.414Z,9.63
2024-05-09T06:58:16.408Z,7.90
2024-05-09T07:00:43.462Z,9.25
2024-05-09T07:03:13.439Z,8.57
2024-05-09T07:05:43.068Z,8.85
2024-05-09T07:08:10.802Z,9.57
2024-05-09T07:10:38.493Z,9.55
2024-05-09T07:13:12.784Z,9.30
2024-05-09T07:15:40.423Z,8.27
2024-05-09T07:18:17.651Z,9.57
2024-05-09T07:20:46.717Z,9.25
2024-05-09T07:23:14.289Z,8.75
2024-05-09T07:25:42.082Z,8.85
2024-05-09T07:28:19.901Z,9.30
2024-05-09T07:30:47.567Z,8.90
2024-05-09T07:33:23.614Z,8.98
2024-05-09T07:35:52.257Z,8.73
2024-05-09T07:38:19.456Z,8.57
2024-05-09T07:40:46.773Z,8.07
2024-05-09T07:43:15.012Z,7.75
2024-05-09T07:45:51.240Z,8.10
2024-05-09T07:52:38.744Z,8.30
2024-05-09T07:53:49.495Z,7.65
2024-05-09T07:56:22.171Z,8.02
2024-05-09T07:58:52.114Z,7.72
2024-05-09T08:01:20.228Z,7.95
2024-05-09T08:03:47.692Z,7.32
2024-05-09T08:06:14.928Z,7.15
2024-05-09T08:08:42.032Z,7.78
2024-05-09T08:11:09.085Z,8.23
2024-05-09T08:13:36.158Z,7.03
2024-05-09T08:16:03.032Z,7.07
2024-05-09T08:18:30.388Z,6.75
2024-05-09T08:20:58.256Z,6.90
2024-05-09T08:23:25.349Z,7.47
2024-05-09T08:25:55.039Z,8.13
2024-05-09T08:28:21.975Z,7.05
2024-05-09T08:30:49.065Z,8.07
2024-05-09T08:33:16.217Z,7.00
2024-05-09T08:35:43.351Z,6.43
2024-05-09T08:38:10.303Z,6.35
2024-05-09T08:40:38.291Z,6.28
2024-05-09T08:43:11.286Z,6.22
2024-05-09T08:45:44.497Z,7.00
2024-05-09T08:48:15.105Z,6.95
2024-05-09T08:50:43.952Z,5.80
2024-05-09T08:53:12.236Z,6.55
2024-05-09T08:55:42.804Z,5.90
2024-05-09T08:58:16.180Z,6.00
2024-05-09T09:00:45.313Z,6.47
2024-05-09T09:03:18.690Z,6.80
2024-05-09T09:06:06.884Z,7.30
2024-05-09T09:08:33.794Z,7.90
2024-05-09T09:11:00.976Z,7.38
2024-05-09T09:13:28.322Z,7.95
2024-05-09T09:15:59.134Z,8.02
2024-05-09T09:18:27.549Z,7.57
2024-05-09T09:20:55.230Z,7.15
2024-05-09T09:23:22.649Z,7.90
2024-05-09T09:25:50.185Z,8.13
2024-05-09T09:28:17.303Z,8.02
2024-05-09T09:30:44.452Z,7.13
2024-05-09T09:33:12.403Z,7.07
2024-05-09T09:35:40.762Z,7.32
2024-05-09T09:38:10.615Z,5.88
2024-05-09T09:40:46.684Z,6.63
2024-05-09T09:43:21.167Z,6.70
2024-05-09T09:45:53.604Z,6.80
2024-05-09T09:48:22.903Z,6.55
2024-05-09T09:50:52.402Z,6.22
2024-05-09T09:53:23.508Z,5.72
2024-05-09T09:55:52.453Z,5.97
2024-05-09T09:58:19.759Z,6.10
2024-05-09T10:00:47.444Z,5.88
2024-05-09T10:03:14.562Z,5.45
2024-05-09T10:05:45.098Z,4.70
2024-05-09T10:08:15.200Z,5.00
2024-05-09T10:10:47.130Z,4.95
2024-05-09T10:13:14.560Z,4.53
2024-05-09T10:15:54.633Z,5.22
2024-05-09T10:18:28.269Z,5.32
2024-05-09T10:20:57.894Z,5.50
2024-05-09T10:23:56.244Z,5.90
2024-05-09T10:26:39.617Z,6.30
2024-05-09T10:29:17.152Z,5.57
2024-05-09T10:31:46.183Z,6.28
2024-05-09T10:34:20.946Z,6.05
2024-05-09T10:36:53.599Z,5.07
2024-05-09T10:39:21.863Z,5.57
2024-05-09T10:41:49.700Z,5.68
2024-05-09T10:44:17.637Z,4.88
2024-05-09T10:46:46.276Z,5.82
2024-05-09T10:49:14.532Z,5.85
2024-05-09T10:51:44.541Z,5.18
2024-05-09T10:54:11.694Z,5.18
2024-05-09T10:56:38.698Z,5.13
2024-05-09T10:59:05.793Z,5.45
2024-05-09T11:01:32.824Z,5.22
2024-05-09T11:04:00.227Z,5.68
2024-05-09T11:06:27.410Z,5.10
2024-05-09T11:08:54.727Z,6.25
2024-05-09T11:11:21.989Z,5.68
2024-05-09T11:13:49.233Z,4.78
2024-05-09T11:16:20.040Z,5.45
2024-05-09T11:18:56.166Z,5.70
2024-05-09T11:21:24.645Z,6.15
2024-05-09T11:23:52.482Z,5.40
2024-05-09T11:26:21.721Z,5.97
2024-05-09T11:28:50.912Z,5.10
2024-05-09T11:31:18.591Z,4.82
2024-05-09T11:33:46.129Z,5.05
2024-05-09T11:36:13.734Z,5.05
2024-05-09T11:38:41.495Z,5.05
2024-05-09T11:41:08.915Z,4.90
2024-05-09T11:43:35.709Z,5.10
2024-05-09T11:46:03.875Z,4.72
2024-05-09T11:48:32.279Z,5.40
2024-05-09T11:50:59.625Z,5.13
2024-05-09T11:53:26.444Z,5.10
2024-05-09T11:55:53.523Z,5.32
2024-05-09T11:58:23.064Z,4.93
2024-05-09T12:00:50.322Z,5.45
2024-05-09T12:03:17.374Z,5.40
2024-05-09T12:05:44.475Z,4.57
2024-05-09T12:08:11.960Z,5.22
2024-05-09T12:10:38.933Z,5.75
2024-05-09T12:13:07.221Z,5.57
2024-05-09T12:15:38.266Z,4.88
2024-05-09T12:18:07.323Z,4.95
2024-05-09T12:20:38.508Z,5.38
2024-05-09T12:23:09.329Z,5.40
2024-05-09T12:25:38.371Z,5.28
2024-05-09T12:28:06.477Z,5.95
2024-05-09T12:30:38.156Z,5.00
2024-05-09T12:33:12.363Z,5.63
2024-05-09T12:35:40.598Z,5.90
2024-05-09T12:38:07.902Z,5.90
2024-05-09T12:40:37.891Z,5.07
2024-05-09T12:43:10.289Z,4.32
2024-05-09T12:45:39.070Z,4.90
2024-05-09T12:48:08.494Z,4.47
2024-05-09T12:50:36.857Z,4.20
2024-05-09T12:53:05.029Z,4.43
2024-05-09T12:55:40.177Z,4.50
2024-05-09T12:58:15.225Z,4.20
2024-05-09T13:00:42.555Z,4.07
2024-05-09T13:03:09.717Z,4.13
2024-05-09T13:05:37.171Z,4.00
2024-05-09T13:08:04.599Z,3.85
2024-05-09T13:10:33.183Z,3.90
2024-05-09T13:13:01.994Z,4.25
2024-05-09T13:15:35.113Z,3.95
2024-05-09T13:18:03.689Z,4.10
2024-05-09T13:20:34.131Z,3.80
2024-05-09T13:23:08.091Z,4.00
2024-05-09T13:25:36.433Z,4.07
2024-05-09T13:28:04.874Z,4.05
2024-05-09T13:30:39.466Z,3.88
2024-05-09T13:33:13.158Z,3.92
2024-05-09T13:35:47.578Z,4.43
2024-05-09T13:38:18.766Z,3.85
2024-05-09T13:40:46.166Z,3.90
2024-05-09T13:43:13.677Z,4.00
2024-05-09T13:45:40.856Z,3.58
2024-05-09T13:48:09.786Z,3.67
2024-05-09T13:50:37.489Z,3.35
2024-05-09T13:53:06.714Z,3.13
2024-05-09T13:55:35.613Z,3.20
2024-05-09T13:58:03.193Z,3.50
2024-05-09T14:00:42.180Z,3.70
2024-05-09T14:03:14.446Z,3.38
2024-05-09T14:05:41.955Z,3.20
2024-05-09T14:08:09.395Z,3.47
2024-05-09T14:10:43.503Z,3.28
2024-05-09T14:13:11.161Z,3.42
2024-05-09T14:15:38.183Z,3.00
2024-05-09T14:18:06.603Z,3.47
2024-05-09T14:20:34.208Z,3.80
2024-05-09T14:23:01.207Z,3.22
2024-05-09T14:25:29.781Z,3.08
2024-05-09T14:28:00.297Z,2.72
2024-05-09T14:30:34.795Z,3.20
2024-05-09T14:33:06.528Z,3.10
2024-05-09T14:35:34.474Z,3.58
2024-05-09T14:38:01.489Z,3.05
2024-05-09T14:40:39.722Z,3.20
2024-05-09T14:43:14.768Z,2.95
2024-05-09T14:45:43.295Z,2.92
2024-05-09T14:48:11.757Z,3.15
2024-05-09T14:50:40.489Z,2.58
2024-05-09T14:53:09.135Z,3.10
2024-05-09T14:55:37.727Z,2.92
2024-05-09T14:58:09.225Z,2.65
2024-05-09T15:00:44.872Z,3.30
2024-05-09T15:03:15.413Z,2.90
2024-05-09T15:05:42.691Z,2.83
2024-05-09T15:08:09.746Z,3.20
2024-05-09T15:10:37.559Z,3.53
2024-05-09T15:13:07.218Z,3.33
2024-05-09T15:15:35.817Z,3.08
2024-05-09T15:18:04.345Z,3.13
2024-05-09T15:20:35.553Z,3.10
2024-05-09T15:23:05.167Z,2.95
2024-05-09T15:25:33.773Z,3.42
2024-05-09T15:28:00.962Z,2.90
2024-05-09T15:30:31.297Z,2.65
2024-05-09T15:33:01.114Z,3.17
2024-05-09T15:35:28.266Z,2.92
2024-05-09T15:37:55.574Z,2.75
2024-05-09T15:40:31.459Z,2.38
2024-05-09T15:43:05.839Z,3.28
2024-05-09T15:45:33.046Z,3.25
2024-05-09T15:48:00.551Z,2.95
2024-05-09T15:50:36.290Z,3.10
2024-05-09T15:53:07.922Z,3.03
2024-05-09T15:55:35.867Z,2.70
2024-05-09T15:58:04.053Z,2.92
2024-05-09T16:03:01.549Z,3.15
2024-05-09T16:05:28.610Z,2.78
2024-05-09T16:07:55.616Z,2.90
2024-05-09T16:10:26.070Z,3.03
2024-05-09T16:12:59.343Z,3.42
2024-05-09T16:15:26.264Z,2.72
2024-05-09T16:17:54.076Z,3.10
2024-05-09T16:20:33.430Z,2.50
2024-05-09T16:23:05.608Z,3.05
2024-05-09T16:25:32.451Z,3.13
2024-05-09T16:27:59.571Z,3.08
2024-05-09T16:30:33.736Z,2.70
2024-05-09T16:33:03.864Z,2.75
2024-05-09T16:35:31.532Z,3.33
2024-05-09T16:37:58.347Z,2.80
2024-05-09T16:40:34.402Z,2.78
2024-05-09T16:43:06.342Z,2.92
2024-05-09T16:45:33.719Z,2.88
2024-05-09T16:48:02.089Z,3.00
2024-05-09T16:50:33.469Z,3.15
2024-05-09T16:53:03.615Z,2.63
2024-05-09T16:55:31.149Z,2.85
2024-05-09T16:57:58.567Z,3.60
2024-05-09T17:00:35.662Z,3.00
2024-05-09T17:03:09.896Z,2.90
2024-05-09T17:05:37.643Z,2.60
2024-05-09T17:08:05.166Z,3.33
2024-05-09T17:10:34.267Z,2.85
2024-05-09T17:13:04.440Z,5.20
2024-05-09T17:15:32.936Z,12.68
2024-05-09T17:18:00.240Z,7.65
2024-05-09T17:20:33.047Z,3.30
2024-05-09T17:23:04.183Z,3.35
2024-05-09T17:25:31.435Z,3.30
2024-05-09T17:28:05.203Z,3.53
2024-05-09T17:30:36.443Z,2.70
2024-05-09T17:33:06.513Z,3.10
2024-05-09T17:35:33.634Z,3.80
2024-05-09T17:38:01.812Z,3.47
2024-05-09T17:40:33.634Z,18.90
2024-05-09T17:43:04.288Z,3.72
2024-05-09T17:45:32.233Z,3.55
2024-05-09T17:47:59.968Z,3.97
2024-05-09T17:50:35.041Z,3.42
2024-05-09T17:53:04.880Z,3.40
2024-05-09T17:55:32.126Z,3.10
2024-05-09T17:57:59.268Z,3.00
2024-05-09T18:00:37.479Z,6.00
2024-05-09T18:03:08.745Z,4.40
2024-05-09T18:05:37.220Z,3.17
2024-05-09T18:08:06.063Z,3.88
2024-05-09T18:10:37.418Z,3.35
2024-05-09T18:13:07.482Z,3.28
2024-05-09T18:15:34.947Z,3.70
2024-05-09T18:18:03.192Z,3.25
2024-05-09T18:20:39.862Z,3.20
2024-05-09T18:23:11.604Z,3.33
2024-05-09T18:25:38.710Z,2.90
2024-05-09T18:28:06.977Z,3.60
2024-05-09T18:30:36.316Z,3.83
2024-05-09T18:33:06.457Z,3.00
2024-05-09T18:35:34.953Z,3.15
2024-05-09T18:38:02.134Z,3.40
2024-05-09T18:40:34.255Z,3.00
2024-05-09T18:43:06.721Z,3.20
2024-05-09T18:45:35.538Z,3.17
2024-05-09T18:48:05.411Z,3.92
2024-05-09T18:50:37.271Z,4.28
2024-05-09T18:53:07.032Z,4.30
2024-05-09T18:55:34.050Z,5.05
2024-05-09T18:58:01.270Z,5.53
2024-05-09T19:00:34.629Z,6.05
2024-05-09T19:03:09.427Z,4.40
2024-05-09T19:05:39.187Z,3.72
2024-05-09T19:08:07.705Z,3.33
2024-05-09T19:10:36.020Z,3.50
2024-05-09T19:13:08.480Z,3.75
2024-05-09T19:15:39.518Z,3.37
2024-05-09T19:18:07.474Z,3.78
2024-05-09T19:20:36.340Z,3.88
2024-05-09T19:23:06.191Z,4.18
2024-05-09T19:25:33.528Z,4.57
2024-05-09T19:28:01.291Z,4.72
2024-05-09T19:30:37.580Z,3.58
2024-05-09T19:33:08.907Z,3.30
2024-05-09T19:35:36.400Z,3.72
2024-05-09T19:38:03.903Z,4.20
2024-05-09T19:40:33.534Z,3.42
2024-05-09T19:43:03.023Z,3.47
2024-05-09T19:45:30.856Z,4.10
2024-05-09T19:47:58.024Z,3.78
2024-05-09T19:50:32.843Z,3.80
2024-05-09T19:53:08.424Z,3.60
2024-05-09T19:55:35.397Z,3.92
2024-05-09T19:58:05.360Z,4.10
2024-05-09T20:00:39.539Z,3.72
2024-05-09T20:03:09.297Z,4.00
2024-05-09T20:05:37.284Z,4.50
2024-05-09T20:08:05.444Z,3.50
2024-05-09T20:10:35.076Z,3.92
2024-05-09T20:13:05.789Z,4.00
2024-05-09T20:15:38.243Z,4.13
2024-05-09T20:18:06.730Z,4.05
2024-05-09T20:20:39.960Z,3.88
2024-05-09T20:23:11.526Z,4.47
2024-05-09T20:25:38.762Z,3.80
2024-05-09T20:28:06.778Z,4.07
2024-05-09T20:30:35.424Z,3.80
2024-05-09T20:33:05.206Z,3.78
2024-05-09T20:35:34.176Z,4.30
2024-05-09T20:38:02.820Z,4.03
2024-05-09T20:40:35.055Z,3.97
2024-05-09T20:43:06.017Z,4.18
2024-05-09T20:45:34.131Z,4.65
2024-05-09T20:48:01.760Z,3.67
2024-05-09T20:50:36.934Z,4.53
2024-05-09T20:53:13.941Z,4.10
2024-05-09T20:55:43.392Z,3.92
2024-05-09T20:58:11.095Z,4.47
2024-05-09T21:00:42.489Z,3.75
2024-05-09T21:03:13.055Z,4.72
2024-05-09T21:05:41.347Z,3.90
2024-05-09T21:08:08.956Z,4.40
2024-05-09T21:10:37.108Z,4.68
2024-05-09T21:13:05.848Z,4.38
2024-05-09T21:15:33.862Z,4.65
2024-05-09T21:18:01.034Z,4.70
2024-05-09T21:20:31.495Z,4.80
2024-05-09T21:23:01.324Z,5.05
2024-05-09T21:25:28.796Z,5.10
2024-05-09T21:27:56.047Z,4.93
2024-05-09T21:30:32.444Z,5.35
2024-05-09T21:33:13.292Z,4.55
2024-05-09T21:35:42.428Z,4.93
2024-05-09T21:38:09.711Z,5.13
2024-05-09T21:40:38.210Z,4.93
2024-05-09T21:43:07.316Z,4.70
2024-05-09T21:45:35.289Z,4.78
2024-05-09T21:48:06.561Z,4.93
2024-05-09T21:50:39.924Z,5.30
2024-05-09T21:53:09.817Z,4.72
2024-05-09T21:55:36.824Z,4.55
2024-05-09T21:58:04.378Z,4.93
2024-05-09T22:00:37.035Z,4.55
2024-05-09T22:03:07.999Z,5.03
2024-05-09T22:05:36.444Z,4.85
2024-05-09T22:08:03.962Z,5.25
2024-05-09T22:10:34.824Z,5.25
2024-05-09T22:13:05.312Z,4.35
2024-05-09T22:15:36.422Z,4.93
2024-05-09T22:18:05.274Z,4.68
2024-05-09T22:20:37.333Z,5.05
2024-05-09T22:23:06.660Z,4.97
2024-05-09T22:25:34.115Z,5.00
2024-05-09T22:28:02.706Z,4.70
2024-05-09T22:30:36.164Z,4.72
2024-05-09T22:33:07.862Z,4.40
2024-05-09T22:35:35.290Z,4.20
2024-05-09T22:38:05.838Z,4.72
2024-05-09T22:40:42.722Z,4.40
2024-05-09T22:43:18.447Z,4.38
2024-05-09T22:45:46.535Z,4.13
2024-05-09T22:48:13.936Z,4.40
2024-05-09T22:50:41.741Z,4.68
2024-05-09T22:53:08.834Z,4.57
2024-05-09T22:55:36.438Z,4.95
2024-05-09T22:58:03.700Z,4.57
2024-05-09T23:00:32.651Z,4.30
2024-05-09T23:03:01.819Z,3.85
2024-05-09T23:05:29.840Z,4.53
2024-05-09T23:07:57.010Z,4.40
2024-05-09T23:10:32.158Z,4.40
2024-05-09T23:13:03.903Z,4.18
2024-05-09T23:15:31.155Z,4.28
2024-05-09T23:17:58.679Z,4.63
2024-05-09T23:20:35.955Z,4.90
2024-05-09T23:23:10.545Z,4.47
2024-05-09T23:25:38.591Z,4.35
2024-05-09T23:28:06.219Z,4.90
2024-05-09T23:30:38.090Z,4.47
2024-05-09T23:33:08.498Z,4.63
2024-05-09T23:35:35.711Z,4.15
2024-05-09T23:38:02.932Z,4.60
2024-05-09T23:40:38.274Z,4.03
2024-05-09T23:43:08.735Z,4.97
2024-05-09T23:45:36.149Z,4.75
2024-05-09T23:48:03.706Z,5.35
2024-05-09T23:50:35.097Z,4.65
2024-05-09T23:53:05.605Z,4.88
2024-05-09T23:55:32.993Z,4.53
2024-05-09T23:58:00.171Z,4.93
